Aviation Digital Data Service (ADDS)

Output produced by METARs form (0302 UTC 18 August 2017)
found at http://www.aviationweather.gov/adds/metars/
 
FKKD 180200Z VRB01KT 8000 SCT004 BKN010 FEW013CB 24/24 Q1010 TEMPO 3500 -RADZ
TAF FKKD 172300Z 1800/1906 VRB04KT 7000 -DZ SCT004 BKN010 FEW013CB 
     TEMPO 1800/1809 2500 RADZ 
     PROB40 
     TEMPO 1803/1809 3000 TSRADZ
       
FKKR 180100Z 00000KT CAVOK 25/24 Q1011 NOSIG
FKYS 180200Z 00000KT 7000 FEW003 BKN006 19/19 Q1015 TEMPO 3000 BR
TAF FKYS 172300Z 1800/1824 26005KT 8000 SCT003 BKN006 
     TEMPO 1802/1808 4000 -DZ 
     PROB30 1804/1808 2000 BR 
     BECMG 1808/1810 BKN013 
     BECMG 1820/1822 BKN006